Time;durP1;ratioP1;P1;durP2;ratioP2;P2;SDS_P1;SDS_P2;PMS_P1;PMS_P2;Temp;Humidity;BMP_temperature;BMP_pressure;BME280_temperature;BME280_humidity;BME280_pressure;Samples;Min_cycle;Max_cycle;Signal;HPM_P1;HPM_P2
2022/05/05 00:02:18;;;;;;;14.57;5.78;;;6.50;99.90;;;;;;6185407;23;20072;-84
2022/05/05 00:04:44;;;;;;;15.60;5.45;;;6.40;99.90;;;;;;6186035;23;20032;-84
2022/05/05 00:07:09;;;;;;;13.63;5.97;;;6.40;99.90;;;;;;6185450;23;20070;-84
2022/05/05 00:09:36;;;;;;;12.63;5.40;;;6.30;99.90;;;;;;6183945;23;20088;-84
2022/05/05 00:14:45;;;;;;;13.00;5.50;;;6.20;99.90;;;;;;6185094;23;20021;-84
2022/05/05 00:17:12;;;;;;;13.13;6.57;;;6.10;99.90;;;;;;6186159;23;20040;-84
2022/05/05 00:19:40;;;;;;;16.02;6.32;;;6.20;99.90;;;;;;6186432;23;20055;-84
2022/05/05 00:22:06;;;;;;;13.50;5.47;;;6.10;99.90;;;;;;6183213;23;20013;-84
2022/05/05 00:24:32;;;;;;;13.60;6.10;;;6.00;99.90;;;;;;6185955;23;20017;-84
2022/05/05 00:26:58;;;;;;;13.95;5.75;;;6.00;99.90;;;;;;6186040;23;20059;-85
2022/05/05 00:29:24;;;;;;;14.77;6.45;;;6.00;99.90;;;;;;6185320;23;20021;-84
2022/05/05 00:31:50;;;;;;;15.90;6.65;;;5.90;99.90;;;;;;6184047;23;20024;-84
2022/05/05 00:34:16;;;;;;;12.90;6.55;;;5.90;99.90;;;;;;6186143;23;20385;-84
2022/05/05 00:36:42;;;;;;;15.27;6.33;;;5.80;99.90;;;;;;6183209;23;20013;-84
2022/05/05 00:39:10;;;;;;;13.57;6.63;;;5.80;99.90;;;;;;6185543;23;20021;-84
2022/05/05 00:41:44;;;;;;;17.30;7.07;;;5.80;99.90;;;;;;6185591;23;20345;-84
2022/05/05 00:44:10;;;;;;;13.45;5.97;;;5.70;99.90;;;;;;6184501;23;20441;-84
2022/05/05 00:46:36;;;;;;;18.67;7.17;;;5.70;99.90;;;;;;6183720;23;20052;-84
2022/05/05 00:49:02;;;;;;;17.07;7.13;;;5.60;99.90;;;;;;6183522;23;20041;-84
2022/05/05 00:51:28;;;;;;;15.87;7.00;;;5.60;99.90;;;;;;6183183;23;20027;-84
2022/05/05 00:53:55;;;;;;;15.37;7.33;;;5.60;99.90;;;;;;6183834;23;20181;-84
2022/05/05 00:56:22;;;;;;;14.80;7.50;;;5.70;99.90;;;;;;6186080;23;20453;-84
2022/05/05 00:58:48;;;;;;;20.33;7.27;;;5.70;99.90;;;;;;6182383;23;20021;-84
2022/05/05 01:01:20;;;;;;;14.03;6.80;;;5.60;99.90;;;;;;6185686;23;20437;-84
2022/05/05 01:03:47;;;;;;;15.47;7.00;;;5.60;99.90;;;;;;6184497;23;20021;-84
2022/05/05 01:06:15;;;;;;;13.10;7.00;;;5.60;99.90;;;;;;6183637;23;20088;-84
2022/05/05 01:08:42;;;;;;;16.00;6.97;;;5.60;99.90;;;;;;6182234;23;20024;-84
2022/05/05 01:11:08;;;;;;;15.73;7.13;;;5.60;99.90;;;;;;6182741;23;20436;-84
2022/05/05 01:13:38;;;;;;;17.15;7.35;;;5.50;99.90;;;;;;6184052;23;20024;-84
2022/05/05 01:16:05;;;;;;;17.15;8.18;;;5.50;99.90;;;;;;6185702;23;20071;-84
2022/05/05 01:18:30;;;;;;;14.15;6.95;;;5.60;99.90;;;;;;6182938;23;20067;-83
2022/05/05 01:20:56;;;;;;;13.70;7.53;;;5.50;99.90;;;;;;6185690;23;20012;-84
2022/05/05 01:23:22;;;;;;;13.85;7.13;;;5.40;99.90;;;;;;6184213;23;20060;-84
2022/05/05 01:28:34;;;;;;;14.63;7.30;;;5.40;99.90;;;;;;6185734;23;20029;-84
2022/05/05 01:31:02;;;;;;;18.00;7.72;;;5.40;99.90;;;;;;6185383;23;20024;-84
2022/05/05 01:33:30;;;;;;;17.15;7.15;;;5.40;99.90;;;;;;6182674;23;20067;-84
2022/05/05 01:35:58;;;;;;;18.88;8.07;;;5.40;99.90;;;;;;6183418;23;20027;-84
2022/05/05 01:38:25;;;;;;;16.90;7.28;;;5.40;99.90;;;;;;6184218;23;20043;-84
2022/05/05 01:40:51;;;;;;;15.30;7.70;;;5.40;99.90;;;;;;6185210;23;20336;-85
2022/05/05 01:43:23;;;;;;;16.40;7.32;;;5.40;99.90;;;;;;6184656;23;20053;-84
2022/05/05 01:45:49;;;;;;;15.73;7.45;;;5.40;99.90;;;;;;6184826;23;20017;-84
2022/05/05 01:48:15;;;;;;;16.80;7.97;;;5.40;99.90;;;;;;6184387;23;20028;-84
2022/05/05 01:50:41;;;;;;;17.10;7.95;;;5.40;99.90;;;;;;6185788;23;20013;-85
2022/05/05 01:53:06;;;;;;;19.50;7.85;;;5.40;99.90;;;;;;6185164;23;20095;-85
2022/05/05 01:55:33;;;;;;;21.15;7.88;;;5.40;99.90;;;;;;6185799;23;20033;-85
2022/05/05 01:58:00;;;;;;;15.18;7.88;;;5.30;99.90;;;;;;6185414;23;20096;-85
2022/05/05 02:00:26;;;;;;;15.57;7.13;;;5.30;99.90;;;;;;6184755;23;20048;-84
2022/05/05 02:02:52;;;;;;;15.57;7.43;;;5.30;99.90;;;;;;6183025;23;20028;-85
2022/05/05 02:05:18;;;;;;;14.10;7.38;;;5.30;99.90;;;;;;6184640;23;20013;-85
2022/05/05 02:07:45;;;;;;;16.17;7.72;;;5.30;99.90;;;;;;6182358;23;20052;-85
2022/05/05 02:10:16;;;;;;;16.98;7.80;;;5.30;99.90;;;;;;6183265;23;20064;-85
2022/05/05 02:12:44;;;;;;;15.55;7.90;;;5.30;99.90;;;;;;6183172;23;20020;-85
2022/05/05 02:15:12;;;;;;;17.98;8.30;;;5.30;99.90;;;;;;6182397;23;20017;-85
2022/05/05 02:17:40;;;;;;;16.38;8.00;;;5.20;99.90;;;;;;6183375;23;20345;-84
2022/05/05 02:20:08;;;;;;;23.05;8.85;;;5.20;99.90;;;;;;6185455;23;20035;-84
2022/05/05 02:22:34;;;;;;;16.00;8.10;;;5.20;99.90;;;;;;6184535;23;20013;-85
2022/05/05 02:25:00;;;;;;;16.67;7.60;;;5.10;99.90;;;;;;6183090;23;20028;-85
2022/05/05 02:27:25;;;;;;;19.15;8.27;;;5.10;99.90;;;;;;6185489;23;20017;-85
2022/05/05 02:29:52;;;;;;;15.38;7.63;;;5.10;99.90;;;;;;6184052;23;20311;-85
2022/05/05 02:32:18;;;;;;;16.88;7.45;;;5.00;99.90;;;;;;6185396;23;20394;-84
2022/05/05 02:34:45;;;;;;;17.23;8.20;;;5.00;99.90;;;;;;6185021;23;20016;-85
2022/05/05 02:39:55;;;;;;;20.45;8.60;;;5.00;99.90;;;;;;6182903;23;20025;-84
2022/05/05 02:42:21;;;;;;;18.87;8.47;;;4.90;99.90;;;;;;6184234;23;20064;-85
2022/05/05 02:44:47;;;;;;;15.77;7.70;;;4.90;99.90;;;;;;6183116;23;20017;-85
2022/05/05 02:47:13;;;;;;;15.43;7.43;;;4.80;99.90;;;;;;6183240;23;20460;-85
2022/05/05 02:49:38;;;;;;;18.23;8.23;;;4.80;99.90;;;;;;6183851;23;20021;-84
2022/05/05 02:52:05;;;;;;;16.63;7.80;;;4.70;99.90;;;;;;6185155;23;20369;-84
2022/05/05 02:54:47;;;;;;;16.70;8.33;;;4.70;99.90;;;;;;6185248;23;20017;-84
2022/05/05 02:57:13;;;;;;;16.63;8.20;;;4.70;99.90;;;;;;6184353;23;20376;-85
2022/05/05 02:59:39;;;;;;;19.50;8.07;;;4.70;99.90;;;;;;6183095;23;20096;-84
2022/05/05 03:02:05;;;;;;;18.02;8.57;;;4.70;99.90;;;;;;6185097;23;20382;-84
2022/05/05 03:04:30;;;;;;;18.50;8.80;;;4.60;99.90;;;;;;6185898;23;20020;-84
2022/05/05 03:06:56;;;;;;;16.88;8.85;;;5.00;99.90;;;;;;6192419;23;20101;-84
2022/05/05 03:09:21;;;;;;;17.23;9.07;;;4.50;99.90;;;;;;6186186;23;20024;-85
2022/05/05 03:11:47;;;;;;;16.08;8.05;;;4.50;99.90;;;;;;6181761;23;20027;-84
2022/05/05 03:14:12;;;;;;;19.20;8.15;;;4.50;99.90;;;;;;6185076;23;20507;-84
2022/05/05 03:16:38;;;;;;;18.75;8.35;;;4.50;99.90;;;;;;6186203;23;20020;-84
2022/05/05 03:19:04;;;;;;;23.23;10.90;;;4.40;99.90;;;;;;6182132;23;20323;-84
2022/05/05 03:21:29;;;;;;;18.83;9.27;;;4.40;99.90;;;;;;6185790;23;20101;-84
2022/05/05 03:23:55;;;;;;;17.85;9.05;;;4.40;99.90;;;;;;6184941;23;20075;-84
2022/05/05 03:26:20;;;;;;;18.73;8.27;;;4.40;99.90;;;;;;6184237;23;20021;-84
2022/05/05 03:28:46;;;;;;;21.20;9.03;;;4.30;99.90;;;;;;6186388;23;20025;-84
2022/05/05 03:31:12;;;;;;;20.43;9.07;;;4.30;99.90;;;;;;6183763;23;20610;-84
2022/05/05 03:33:37;;;;;;;15.83;8.40;;;4.40;99.90;;;;;;6186708;23;20380;-84
2022/05/05 03:36:03;;;;;;;18.70;9.30;;;4.30;99.90;;;;;;6184786;23;20449;-84
2022/05/05 03:38:29;;;;;;;18.90;9.30;;;4.20;99.90;;;;;;6183772;23;20028;-83
2022/05/05 03:40:55;;;;;;;17.50;9.00;;;4.20;99.90;;;;;;6184447;23;20049;-83
2022/05/05 03:43:21;;;;;;;18.03;9.10;;;4.20;99.90;;;;;;6186729;23;20024;-83
2022/05/05 03:45:47;;;;;;;18.07;8.90;;;4.10;99.90;;;;;;6183731;23;20096;-84
2022/05/05 03:48:12;;;;;;;18.57;9.47;;;4.10;99.90;;;;;;6186171;23;20013;-83
2022/05/05 03:50:38;;;;;;;20.33;9.93;;;4.10;99.90;;;;;;6184593;23;20056;-83
2022/05/05 03:53:04;;;;;;;20.60;10.10;;;4.10;99.90;;;;;;6182993;23;20021;-84
2022/05/05 03:55:30;;;;;;;23.23;10.37;;;4.10;99.90;;;;;;6184781;23;20013;-83
2022/05/05 03:57:55;;;;;;;25.03;10.60;;;4.10;99.90;;;;;;6184598;23;20028;-83
2022/05/05 04:00:22;;;;;;;26.23;11.30;;;4.10;99.90;;;;;;6185967;23;20521;-83
2022/05/05 04:03:30;;;;;;;22.83;11.27;;;4.10;99.90;;;;;;6184497;23;20040;-83
2022/05/05 04:05:35;;;;;;;19.80;10.43;;;4.10;99.90;;;;;;6184299;23;20036;-83
2022/05/05 04:08:05;;;;;;;20.60;10.40;;;4.10;99.90;;;;;;6185208;23;20016;-83
2022/05/05 04:10:31;;;;;;;24.77;11.17;;;4.20;99.90;;;;;;6184786;23;20064;-84
2022/05/05 04:12:57;;;;;;;18.57;9.80;;;4.20;99.90;;;;;;6184360;23;20066;-84
2022/05/05 04:15:23;;;;;;;24.53;10.17;;;4.20;99.90;;;;;;6183698;23;20441;-84
2022/05/05 04:17:49;;;;;;;23.20;10.20;;;4.20;99.90;;;;;;6193438;23;20017;-83
2022/05/05 04:20:15;;;;;;;22.30;10.83;;;4.30;99.90;;;;;;6197668;23;20021;-84
2022/05/05 04:22:41;;;;;;;21.77;10.33;;;4.30;99.90;;;;;;6183317;23;20013;-84
2022/05/05 04:25:07;;;;;;;21.00;11.73;;;4.30;99.90;;;;;;6184305;23;20337;-84
2022/05/05 04:27:34;;;;;;;21.40;11.03;;;4.40;99.90;;;;;;6185120;23;20349;-84
2022/05/05 04:30:00;;;;;;;20.57;11.00;;;4.40;99.90;;;;;;6184280;23;20021;-84
2022/05/05 04:32:26;;;;;;;22.93;10.87;;;4.50;99.90;;;;;;6186119;23;20500;-84
2022/05/05 04:34:53;;;;;;;21.87;11.27;;;4.60;99.90;;;;;;6185198;23;20009;-84
2022/05/05 04:37:20;;;;;;;21.37;10.57;;;4.60;99.90;;;;;;6184453;23;20500;-84
2022/05/05 04:39:45;;;;;;;21.57;10.90;;;4.70;99.90;;;;;;6185355;23;20027;-84
2022/05/05 04:42:11;;;;;;;22.03;11.50;;;4.80;99.90;;;;;;6183504;23;20017;-84
2022/05/05 04:44:36;;;;;;;20.70;10.77;;;4.90;99.90;;;;;;6185840;23;20024;-84
2022/05/05 04:47:02;;;;;;;21.07;10.47;;;5.00;99.90;;;;;;6183843;23;20067;-84
2022/05/05 04:49:28;;;;;;;25.10;11.47;;;5.10;99.90;;;;;;6185145;23;20088;-84
2022/05/05 04:51:54;;;;;;;22.27;11.47;;;5.20;99.90;;;;;;6185925;23;20052;-84
2022/05/05 04:54:20;;;;;;;28.73;11.40;;;5.30;99.90;;;;;;6186137;23;20311;-84
2022/05/05 04:56:45;;;;;;;21.37;11.37;;;5.30;99.90;;;;;;6183114;23;20021;-83
2022/05/05 04:59:12;;;;;;;22.13;10.70;;;5.40;99.90;;;;;;6188752;23;20096;-84
2022/05/05 05:01:37;;;;;;;24.13;11.63;;;5.50;99.90;;;;;;6184694;23;20017;-84
2022/05/05 05:04:03;;;;;;;27.47;11.73;;;5.60;99.90;;;;;;6184885;23;20036;-83
2022/05/05 05:06:29;;;;;;;25.77;12.07;;;5.70;99.90;;;;;;6186283;23;20108;-84
2022/05/05 05:08:57;;;;;;;20.10;11.23;;;5.80;99.90;;;;;;6211716;23;20400;-84
2022/05/05 05:11:23;;;;;;;24.13;11.10;;;5.90;99.90;;;;;;6185863;23;20013;-84
2022/05/05 05:13:49;;;;;;;19.63;11.07;;;6.00;99.90;;;;;;6185717;23;20071;-83
2022/05/05 05:16:15;;;;;;;20.67;11.27;;;6.10;99.90;;;;;;6186496;23;20021;-84
2022/05/05 05:18:41;;;;;;;21.93;10.37;;;6.20;99.90;;;;;;6182503;23;20067;-84
2022/05/05 05:21:06;;;;;;;21.00;10.43;;;6.30;99.90;;;;;;6183890;23;20017;-84
2022/05/05 05:23:32;;;;;;;22.40;11.77;;;6.40;99.90;;;;;;6183932;23;20036;-84
2022/05/05 05:25:58;;;;;;;22.13;10.97;;;6.60;99.90;;;;;;6184729;23;20101;-84
2022/05/05 05:28:24;;;;;;;21.07;10.83;;;6.70;99.90;;;;;;6183728;23;20017;-84
2022/05/05 05:30:49;;;;;;;19.87;11.00;;;6.90;99.90;;;;;;6184894;23;20009;-90
2022/05/05 05:33:15;;;;;;;20.37;10.50;;;7.00;99.90;;;;;;6185952;23;20013;-89
2022/05/05 05:35:41;;;;;;;20.73;10.85;;;7.10;99.90;;;;;;6183828;23;20462;-86
2022/05/05 05:38:07;;;;;;;23.55;11.27;;;7.30;99.90;;;;;;6182680;23;20025;-92
2022/05/05 05:40:33;;;;;;;21.35;11.07;;;7.40;99.90;;;;;;6184725;23;20019;-91
2022/05/05 05:42:59;;;;;;;18.48;10.20;;;7.60;99.90;;;;;;6184569;23;20099;-87
2022/05/05 05:45:24;;;;;;;24.52;11.23;;;7.60;99.90;;;;;;6184717;23;20013;-87
2022/05/05 05:47:51;;;;;;;18.50;10.70;;;7.80;99.90;;;;;;6185523;23;20012;-87
2022/05/05 05:50:16;;;;;;;18.92;10.85;;;7.90;99.90;;;;;;6184721;23;20025;-87
2022/05/05 05:52:42;;;;;;;18.75;10.57;;;8.00;99.90;;;;;;6182413;23;20009;-86
2022/05/05 05:55:08;;;;;;;20.70;11.02;;;8.50;99.90;;;;;;6185471;23;20075;-87
2022/05/05 05:57:33;;;;;;;20.10;10.30;;;8.20;99.90;;;;;;6183626;23;20017;-87
2022/05/05 05:59:59;;;;;;;22.23;10.95;;;8.30;99.90;;;;;;6184260;23;20017;-88
2022/05/05 06:05:09;;;;;;;21.92;11.18;;;8.30;99.90;;;;;;6185781;23;20021;-87
2022/05/05 06:07:34;;;;;;;20.58;10.63;;;8.50;99.90;;;;;;6185232;23;20063;-87
2022/05/05 06:10:00;;;;;;;18.00;10.85;;;8.50;99.90;;;;;;6184847;23;20441;-87
2022/05/05 06:12:25;;;;;;;21.90;10.65;;;8.50;99.90;;;;;;6185595;23;20024;-87
2022/05/05 06:14:52;;;;;;;18.40;10.65;;;8.50;99.90;;;;;;6182116;23;20021;-87
2022/05/05 06:17:17;;;;;;;20.58;10.45;;;8.60;99.90;;;;;;6183808;23;20032;-88
2022/05/05 06:19:43;;;;;;;20.75;10.65;;;8.60;99.90;;;;;;6190442;23;20441;-87
2022/05/05 06:22:09;;;;;;;17.88;10.55;;;8.60;99.90;;;;;;6184939;23;20088;-87
2022/05/05 06:24:35;;;;;;;19.48;10.88;;;8.70;99.90;;;;;;6185288;23;20492;-88
2022/05/05 06:27:01;;;;;;;22.92;10.32;;;8.80;99.90;;;;;;6184374;23;20017;-88
2022/05/05 06:29:27;;;;;;;17.13;10.70;;;8.80;99.90;;;;;;6185726;23;20024;-87
2022/05/05 06:31:52;;;;;;;20.42;10.68;;;8.90;99.90;;;;;;6185496;23;20019;-91
2022/05/05 06:34:18;;;;;;;18.98;10.57;;;9.00;99.90;;;;;;6184460;23;20462;-89
2022/05/05 06:36:43;;;;;;;20.20;11.00;;;9.10;99.90;;;;;;6183635;23;20319;-89
2022/05/05 06:39:09;;;;;;;20.20;10.38;;;9.20;99.90;;;;;;6183905;23;20414;-87
2022/05/05 06:41:35;;;;;;;21.05;11.25;;;9.30;99.90;;;;;;6184804;23;20017;-87
2022/05/05 06:44:01;;;;;;;18.60;10.80;;;9.40;99.90;;;;;;6183531;23;20021;-88
2022/05/05 06:46:27;;;;;;;18.08;10.63;;;9.50;99.90;;;;;;6185903;23;20373;-87
2022/05/05 06:48:54;;;;;;;19.02;9.95;;;9.70;99.90;;;;;;6180314;23;20096;-87
2022/05/05 06:51:20;;;;;;;23.70;11.13;;;9.90;99.90;;;;;;6189148;23;20132;-91
2022/05/05 06:53:46;;;;;;;18.15;10.82;;;10.00;99.90;;;;;;6185539;23;20410;-88
2022/05/05 06:56:11;;;;;;;20.50;10.73;;;10.20;99.90;;;;;;6182487;23;20023;-89
2022/05/05 06:58:37;;;;;;;19.45;9.90;;;10.40;99.90;;;;;;6190551;23;20020;-89
2022/05/05 07:03:46;;;;;;;19.98;8.85;;;10.80;99.90;;;;;;6185561;23;20099;-90
2022/05/05 07:06:12;;;;;;;15.82;8.07;;;10.90;99.90;;;;;;6187488;23;20076;-89
2022/05/05 07:11:23;;;;;;;20.95;9.45;;;11.30;99.90;;;;;;6185254;23;20017;-88
2022/05/05 07:13:49;;;;;;;16.92;8.10;;;11.50;99.90;;;;;;6185952;23;20021;-89
2022/05/05 07:16:15;;;;;;;17.38;8.57;;;11.70;99.90;;;;;;6184960;23;20021;-88
2022/05/05 07:18:41;;;;;;;13.45;6.90;;;11.90;99.90;;;;;;6185201;23;20039;-89
2022/05/05 07:21:06;;;;;;;14.00;6.00;;;12.00;99.90;;;;;;6194133;23;20020;-88
2022/05/05 07:23:32;;;;;;;14.02;6.13;;;12.10;99.90;;;;;;6198674;23;20021;-87
2022/05/05 07:25:58;;;;;;;15.07;6.05;;;12.20;99.90;;;;;;6196572;23;20021;-88
2022/05/05 07:28:23;;;;;;;16.60;6.72;;;12.30;99.90;;;;;;6196129;23;20013;-88
2022/05/05 07:30:51;;;;;;;17.85;6.90;;;12.40;99.90;;;;;;6189724;23;20009;-89
2022/05/05 07:33:16;;;;;;;14.57;5.75;;;12.60;99.90;;;;;;6186409;23;20024;-88
2022/05/05 07:35:44;;;;;;;12.63;5.18;;;12.80;99.90;;;;;;6186712;23;20049;-89
2022/05/05 07:38:09;;;;;;;13.55;5.57;;;13.00;99.90;;;;;;6185757;23;20013;-88
2022/05/05 07:40:35;;;;;;;13.93;5.10;;;13.20;99.90;;;;;;6186213;23;20017;-93
2022/05/05 07:43:00;;;;;;;11.13;4.80;;;13.60;99.90;;;;;;6185678;23;20017;-93
2022/05/05 07:45:26;;;;;;;11.38;5.05;;;13.80;99.90;;;;;;6184762;23;20049;-92
2022/05/05 07:47:52;;;;;;;12.82;6.13;;;13.90;99.90;;;;;;6184386;23;20349;-91
2022/05/05 07:50:17;;;;;;;11.90;5.60;;;14.10;99.90;;;;;;6186292;23;20088;-92
2022/05/05 07:52:43;;;;;;;13.38;5.60;;;14.10;99.90;;;;;;6185030;23;20021;-90
2022/05/05 07:55:09;;;;;;;13.27;5.68;;;14.20;99.90;;;;;;6186292;23;20013;-92
2022/05/05 07:57:46;;;;;;;11.50;5.10;;;14.40;99.90;;;;;;6186170;23;20345;-92
2022/05/05 08:00:13;;;;;;;12.80;5.55;;;14.40;99.90;;;;;;6187370;23;20013;-92
2022/05/05 08:02:39;;;;;;;14.15;5.47;;;14.50;99.90;;;;;;6189265;23;20009;-93
2022/05/05 08:05:05;;;;;;;13.60;5.90;;;14.60;99.90;;;;;;6188005;23;20027;-92
2022/05/05 08:07:30;;;;;;;13.50;5.07;;;14.70;99.90;;;;;;6187722;23;20064;-92
2022/05/05 08:09:56;;;;;;;12.00;5.43;;;14.80;99.90;;;;;;6187095;23;20021;-91
2022/05/05 08:12:21;;;;;;;13.40;5.13;;;14.90;99.90;;;;;;6186605;23;20072;-92
2022/05/05 08:14:47;;;;;;;10.85;4.88;;;14.90;99.90;;;;;;6185682;23;20019;-91
2022/05/05 08:17:12;;;;;;;10.60;4.70;;;15.10;99.90;;;;;;6184831;23;20044;-90
2022/05/05 08:19:38;;;;;;;13.40;5.25;;;15.20;99.90;;;;;;6186773;23;20013;-90
2022/05/05 08:22:04;;;;;;;14.93;5.45;;;15.40;99.90;;;;;;6186875;23;20360;-91
2022/05/05 08:30:03;;;;;;;11.30;5.60;;;15.70;99.90;;;;;;6190687;23;20017;-93
2022/05/05 08:32:29;;;;;;;15.63;5.60;;;15.90;99.90;;;;;;6186464;23;20080;-90
2022/05/05 08:34:55;;;;;;;11.52;5.10;;;16.00;99.90;;;;;;6185775;23;20021;-93
2022/05/05 08:37:20;;;;;;;11.88;5.30;;;16.00;99.90;;;;;;6186910;23;20024;-92
2022/05/05 08:39:46;;;;;;;13.45;5.13;;;16.20;99.90;;;;;;6187846;23;20015;-91
2022/05/05 08:42:12;;;;;;;10.73;4.82;;;16.30;99.90;;;;;;6186196;23;20025;-92
2022/05/05 08:44:37;;;;;;;10.85;5.50;;;16.40;99.90;;;;;;6199196;23;20069;-91
2022/05/05 08:47:07;;;;;;;11.27;5.38;;;16.50;99.90;;;;;;6198196;23;20054;-86
2022/05/05 08:49:35;;;;;;;11.77;5.95;;;16.50;99.90;;;;;;6186864;23;20013;-93
2022/05/05 08:52:03;;;;;;;12.70;5.25;;;16.60;99.90;;;;;;6187580;23;20024;-90
2022/05/05 08:54:31;;;;;;;14.05;5.60;;;16.60;99.90;;;;;;6198829;23;20013;-90
2022/05/05 08:56:57;;;;;;;11.23;5.30;;;16.80;99.90;;;;;;6189711;23;20456;-90
2022/05/05 08:59:24;;;;;;;11.52;4.93;;;16.70;99.90;;;;;;6186058;23;20013;-89
2022/05/05 09:01:51;;;;;;;13.10;5.90;;;16.80;99.90;;;;;;6183866;23;20017;-90
2022/05/05 09:04:17;;;;;;;13.30;5.45;;;17.50;99.90;;;;;;6186950;23;20021;-90
2022/05/05 09:06:46;;;;;;;11.77;4.97;;;17.00;99.90;;;;;;6186546;23;20019;-90
2022/05/05 09:09:28;;;;;;;10.00;5.13;;;17.00;99.90;;;;;;6183600;23;20013;-90
2022/05/05 09:12:16;;;;;;;15.05;5.90;;;17.00;99.90;;;;;;6184754;23;20017;-92
2022/05/05 09:14:53;;;;;;;11.10;5.53;;;16.90;99.90;;;;;;6185375;23;20036;-92
2022/05/05 09:17:23;;;;;;;10.48;5.28;;;16.90;99.90;;;;;;6184753;23;20036;-91
2022/05/05 09:19:59;;;;;;;10.88;5.57;;;17.10;99.90;;;;;;6192742;23;20028;-92
2022/05/05 09:22:27;;;;;;;13.32;5.40;;;17.10;99.90;;;;;;6191343;23;20071;-91
2022/05/05 09:24:57;;;;;;;11.25;5.18;;;17.20;99.90;;;;;;6192001;23;20017;-91
2022/05/05 09:27:32;;;;;;;11.00;4.57;;;17.40;99.90;;;;;;6192816;23;20017;-92
2022/05/05 09:30:05;;;;;;;10.55;5.32;;;17.50;99.90;;;;;;6191298;23;20120;-91
2022/05/05 09:32:42;;;;;;;11.77;5.05;;;17.60;99.90;;;;;;6200657;23;20468;-91
2022/05/05 09:35:11;;;;;;;15.07;5.40;;;17.80;99.90;;;;;;6189985;23;20075;-92
2022/05/05 09:37:41;;;;;;;13.40;5.50;;;17.70;99.90;;;;;;6186303;23;20453;-90
2022/05/05 09:40:07;;;;;;;12.75;5.43;;;17.60;99.90;;;;;;6184997;23;20453;-91
2022/05/05 09:42:52;;;;;;;12.48;5.38;;;17.80;99.90;;;;;;6185377;23;20025;-91
2022/05/05 09:45:55;;;;;;;13.55;5.50;;;17.80;99.90;;;;;;6183352;23;20032;-91
2022/05/05 09:48:26;;;;;;;11.02;5.45;;;17.90;99.90;;;;;;6122413;23;20017;-90
2022/05/05 09:51:16;;;;;;;11.15;5.43;;;17.90;99.90;;;;;;6185965;23;20058;-91
2022/05/05 09:57:40;;;;;;;11.65;4.93;;;18.10;99.90;;;;;;6184704;23;20021;-90
2022/05/05 09:59:41;;;;;;;11.70;5.60;;;17.90;99.90;;;;;;6181343;23;20025;-91
2022/05/05 10:02:26;;;;;;;12.65;5.20;;;18.00;99.50;;;;;;6184550;23;20095;-91
2022/05/05 10:04:57;;;;;;;9.60;4.68;;;18.10;99.90;;;;;;6185982;23;20017;-90
2022/05/05 10:07:23;;;;;;;10.50;4.78;;;18.10;99.90;;;;;;6184627;23;20096;-91
2022/05/05 10:09:49;;;;;;;10.02;4.70;;;18.20;99.90;;;;;;6184512;23;20126;-90
2022/05/05 10:12:17;;;;;;;13.32;5.07;;;18.30;99.90;;;;;;6186897;23;20029;-91
2022/05/05 10:14:43;;;;;;;12.98;5.10;;;18.40;99.90;;;;;;6186583;23;20023;-90
2022/05/05 10:17:11;;;;;;;10.30;4.50;;;18.60;99.90;;;;;;6190021;23;20021;-93
2022/05/05 10:19:38;;;;;;;11.20;4.28;;;19.50;99.90;;;;;;6185997;23;20021;-90
2022/05/05 10:22:13;;;;;;;10.45;4.60;;;19.00;99.90;;;;;;6189343;23;20013;-91
2022/05/05 10:24:52;;;;;;;10.80;4.35;;;19.00;99.80;;;;;;6202638;23;20016;-90
2022/05/05 10:27:17;;;;;;;8.85;4.13;;;18.90;99.00;;;;;;6202967;23;20092;-91
2022/05/05 10:29:45;;;;;;;10.02;4.40;;;18.90;99.90;;;;;;6185583;23;20021;-90
2022/05/05 10:32:17;;;;;;;10.02;4.35;;;19.00;99.00;;;;;;6185384;23;20075;-90
2022/05/05 10:34:54;;;;;;;10.13;4.30;;;19.20;99.00;;;;;;6187882;23;20077;-89
2022/05/05 10:37:30;;;;;;;9.73;4.43;;;19.50;98.40;;;;;;6208387;23;20032;-90
2022/05/05 10:40:08;;;;;;;10.80;4.97;;;19.80;98.40;;;;;;6211206;23;20021;-88
2022/05/05 10:42:45;;;;;;;10.18;4.53;;;20.00;97.90;;;;;;6191697;23;20017;-89
2022/05/05 10:45:15;;;;;;;10.35;4.70;;;20.10;97.30;;;;;;6187644;23;20569;-90
2022/05/05 10:47:57;;;;;;;12.20;4.80;;;20.20;97.20;;;;;;6193739;23;20028;-93
2022/05/05 10:50:30;;;;;;;11.05;4.93;;;20.00;96.60;;;;;;6192740;23;20059;-90
2022/05/05 10:52:57;;;;;;;10.70;5.03;;;20.10;96.50;;;;;;6188048;23;20017;-91
2022/05/05 10:55:34;;;;;;;9.70;4.80;;;20.20;96.30;;;;;;6187847;23;20021;-92
2022/05/05 10:57:59;;;;;;;11.02;4.80;;;20.30;95.50;;;;;;6187821;23;20024;-90
2022/05/05 11:00:44;;;;;;;10.45;4.45;;;20.50;95.60;;;;;;6188232;23;20017;-90
2022/05/05 11:03:10;;;;;;;11.65;4.93;;;20.50;95.30;;;;;;6185031;23;20017;-91
2022/05/05 11:05:36;;;;;;;11.23;5.00;;;20.40;95.70;;;;;;6186318;23;20023;-88
2022/05/05 11:08:20;;;;;;;10.27;5.18;;;20.50;95.50;;;;;;6186980;23;20017;-89
2022/05/05 11:11:39;;;;;;;11.25;5.55;;;20.70;95.20;;;;;;6184709;23;20100;-90
2022/05/05 11:13:45;;;;;;;10.85;5.20;;;20.60;95.20;;;;;;6187529;23;20100;-91
2022/05/05 11:22:18;;;;;;;10.85;5.40;;;21.30;94.10;;;;;;6186101;23;20103;-89
2022/05/05 11:24:45;;;;;;;11.35;5.50;;;21.40;93.40;;;;;;6186237;23;20033;-88
2022/05/05 11:27:13;;;;;;;11.77;5.80;;;21.30;93.80;;;;;;6186122;23;20072;-88
2022/05/05 11:29:39;;;;;;;12.45;5.90;;;21.40;94.10;;;;;;6186224;23;20380;-85
2022/05/05 11:32:05;;;;;;;12.10;6.10;;;21.70;94.00;;;;;;6185179;23;20025;-87
2022/05/05 11:34:40;;;;;;;10.60;5.50;;;21.80;92.90;;;;;;6186833;23;20009;-87
2022/05/05 11:37:07;;;;;;;10.73;5.25;;;21.70;92.60;;;;;;6185045;23;20079;-87
2022/05/05 11:39:34;;;;;;;10.00;5.05;;;21.70;92.70;;;;;;6190192;23;20055;-87
2022/05/05 11:42:10;;;;;;;11.90;5.65;;;21.70;92.00;;;;;;6184281;23;20021;-88
2022/05/05 11:44:39;;;;;;;11.57;6.00;;;21.10;89.10;;;;;;6185920;23;20023;-86
2022/05/05 11:47:17;;;;;;;12.35;5.43;;;21.20;91.10;;;;;;6186643;23;20009;-86
2022/05/05 11:49:52;;;;;;;10.55;4.97;;;21.30;91.10;;;;;;6184290;23;20438;-86
2022/05/05 11:52:20;;;;;;;11.00;5.55;;;21.20;91.00;;;;;;6185526;23;20071;-86
2022/05/05 11:54:51;;;;;;;11.45;5.20;;;21.20;91.00;;;;;;6184385;23;20017;-86
2022/05/05 11:57:40;;;;;;;11.57;5.40;;;21.30;91.20;;;;;;6185008;23;20024;-86
2022/05/05 12:02:56;;;;;;;11.93;4.88;;;21.50;91.20;;;;;;6186370;23;20029;-88
2022/05/05 12:05:23;;;;;;;11.93;5.00;;;21.60;91.60;;;;;;6183992;23;20091;-87
2022/05/05 12:07:50;;;;;;;9.93;5.53;;;22.50;91.50;;;;;;6186130;23;20017;-86
2022/05/05 12:10:16;;;;;;;10.40;5.30;;;21.80;91.10;;;;;;6185114;23;20056;-86
2022/05/05 12:12:46;;;;;;;13.10;5.70;;;21.90;91.30;;;;;;6184073;23;20067;-86
2022/05/05 12:15:13;;;;;;;9.75;4.90;;;21.90;90.60;;;;;;6187677;23;20438;-86
2022/05/05 12:17:45;;;;;;;10.70;5.00;;;22.10;90.30;;;;;;6184841;23;20433;-87
2022/05/05 12:20:18;;;;;;;11.05;5.35;;;22.00;89.50;;;;;;6186008;23;20361;-87
2022/05/05 12:22:52;;;;;;;11.02;5.13;;;21.90;88.40;;;;;;6184779;23;20013;-87
2022/05/05 12:25:18;;;;;;;11.68;5.18;;;22.10;88.60;;;;;;6186895;23;20017;-87
2022/05/05 12:27:45;;;;;;;10.75;4.82;;;22.10;88.90;;;;;;6185897;23;20099;-87
2022/05/05 12:30:12;;;;;;;9.68;4.95;;;22.10;88.20;;;;;;6185569;23;20063;-87
2022/05/05 12:32:50;;;;;;;9.68;5.30;;;22.20;88.10;;;;;;6190178;23;20013;-87
2022/05/05 12:35:17;;;;;;;11.32;4.93;;;22.40;87.60;;;;;;6186441;23;20021;-88
2022/05/05 12:37:43;;;;;;;11.00;4.82;;;22.40;87.20;;;;;;6185544;23;20441;-88
2022/05/05 12:40:09;;;;;;;9.45;4.72;;;22.20;86.60;;;;;;6184698;23;20017;-87
2022/05/05 12:42:48;;;;;;;11.50;4.88;;;21.90;86.10;;;;;;6192415;23;20032;-87
2022/05/05 12:45:15;;;;;;;9.40;4.38;;;22.40;87.50;;;;;;6187324;23;20017;-88
2022/05/05 12:47:43;;;;;;;9.38;3.90;;;22.40;86.90;;;;;;6184508;23;20374;-87
2022/05/05 12:50:33;;;;;;;9.18;3.92;;;22.20;85.50;;;;;;6186799;23;20067;-87
2022/05/05 13:01:40;;;;;;;8.50;3.53;;;22.80;84.90;;;;;;6186133;23;20017;-87
2022/05/05 13:04:12;;;;;;;9.35;3.95;;;23.10;85.80;;;;;;6186977;23;20068;-88
2022/05/05 13:06:39;;;;;;;9.10;4.13;;;23.50;83.50;;;;;;6185061;23;20041;-87
2022/05/05 13:09:08;;;;;;;10.70;3.63;;;22.80;82.70;;;;;;6186091;23;20017;-87
2022/05/05 13:11:34;;;;;;;9.18;4.50;;;22.60;83.00;;;;;;6184595;23;20441;-88
2022/05/05 13:14:01;;;;;;;10.88;4.53;;;22.60;82.70;;;;;;6184494;23;20028;-88
2022/05/05 13:16:27;;;;;;;10.85;4.10;;;22.40;83.00;;;;;;6184149;23;20027;-87
2022/05/05 13:18:52;;;;;;;10.63;4.30;;;22.50;82.30;;;;;;6185944;23;20087;-88
2022/05/05 13:21:18;;;;;;;9.98;4.13;;;22.60;82.40;;;;;;6186028;23;20013;-88
2022/05/05 13:23:43;;;;;;;8.20;3.60;;;22.70;82.60;;;;;;6184454;23;20028;-88
2022/05/05 13:26:11;;;;;;;10.40;4.05;;;22.80;82.00;;;;;;6185660;23;20009;-88
2022/05/05 13:28:37;;;;;;;8.93;3.75;;;22.80;81.40;;;;;;6185668;23;20013;-87